Time;durP1;ratioP1;P1;durP2;ratioP2;P2;SDS_P1;SDS_P2;PMS_P1;PMS_P2;Temp;Humidity;BMP_temperature;BMP_pressure;BME280_temperature;BME280_humidity;BME280_pressure;Samples;Min_cycle;Max_cycle;Signal;HPM_P1;HPM_P2
2023/08/31 04:30:31;;;;;;;;;3.75;3.75;;;;;24.76;40.34;100778.66;5898072;23;46208;-63
2023/08/31 04:32:56;;;;;;;;;4.50;4.00;;;;;24.71;40.05;100781.88;4999619;28;47300;-63
2023/08/31 04:35:21;;;;;;;;;6.50;4.50;;;;;24.95;39.72;100781.22;4999553;28;51537;-63
2023/08/31 04:37:47;;;;;;;;;2.50;2.50;;;;;24.81;40.14;100776.31;5000365;28;45249;-62
2023/08/31 04:40:12;;;;;;;;;6.00;3.75;;;;;24.73;40.16;100784.47;4999732;28;50594;-64
2023/08/31 04:42:38;;;;;;;;;3.00;3.00;;;;;24.76;39.46;100785.00;5000086;28;45486;-63
2023/08/31 04:45:03;;;;;;;;;3.50;3.50;;;;;24.65;39.49;100789.91;4999788;28;45404;-65
2023/08/31 04:47:29;;;;;;;;;5.00;3.00;;;;;24.78;39.60;100799.41;4999148;28;45357;-63
2023/08/31 04:49:54;;;;;;;;;3.50;3.50;;;;;24.81;39.64;100795.50;4999032;28;58777;-64
2023/08/31 04:52:19;;;;;;;;;6.00;4.75;;;;;24.70;39.84;100798.50;4999567;28;53525;-63
2023/08/31 04:54:45;;;;;;;;;2.25;2.25;;;;;24.67;39.53;100788.69;4999467;28;47024;-63
2023/08/31 04:57:10;;;;;;;;;3.75;3.75;;;;;24.75;39.86;100790.66;4999497;28;52954;-64
2023/08/31 04:59:35;;;;;;;;;4.25;3.00;;;;;24.87;39.54;100798.44;4999471;28;45381;-63
2023/08/31 05:02:00;;;;;;;;;3.00;3.00;;;;;24.70;39.34;100798.50;4999787;28;45397;-63
2023/08/31 05:04:28;;;;;;;;;2.00;1.75;;;;;24.71;39.36;100808.44;4998239;28;50813;-64
2023/08/31 05:06:53;;;;;;;;;8.00;3.25;;;;;24.74;39.17;100806.25;4999226;28;45349;-63
2023/08/31 05:09:18;;;;;;;;;4.25;3.00;;;;;24.70;39.03;100795.75;4999228;28;45374;-62
2023/08/31 05:11:44;;;;;;;;;2.75;2.00;;;;;24.71;39.71;100802.97;4999401;28;46087;-62
2023/08/31 05:14:09;;;;;;;;;2.00;2.00;;;;;24.74;39.01;100803.50;4999379;28;45322;-62
2023/08/31 05:16:34;;;;;;;;;3.00;2.00;;;;;24.72;39.30;100810.16;4999301;28;54711;-62
2023/08/31 05:19:00;;;;;;;;;4.75;2.00;;;;;24.76;39.27;100806.06;4998562;28;57782;-62
2023/08/31 05:21:25;;;;;;;;;4.25;4.25;;;;;24.82;39.07;100806.31;4999264;28;46387;-61
2023/08/31 05:23:51;;;;;;;;;5.25;4.00;;;;;24.85;39.52;100800.47;4998995;28;45275;-62
2023/08/31 05:26:16;;;;;;;;;4.00;2.00;;;;;24.87;39.01;100803.94;4999613;28;45238;-62
2023/08/31 05:28:43;;;;;;;;;3.25;3.00;;;;;24.99;39.18;100814.69;4997905;28;45201;-62
2023/08/31 05:31:08;;;;;;;;;3.50;3.00;;;;;25.04;38.80;100820.53;4999095;28;45252;-61
2023/08/31 05:33:33;;;;;;;;;3.00;3.00;;;;;24.90;39.44;100808.25;4998683;28;45301;-61
2023/08/31 05:36:03;;;;;;;;;4.00;2.50;;;;;24.88;39.33;100808.41;4999387;28;45238;-63
2023/08/31 05:38:29;;;;;;;;;3.25;3.25;;;;;24.74;39.63;100821.84;4998882;28;45413;-62
2023/08/31 05:40:54;;;;;;;;;5.00;3.75;;;;;24.90;39.20;100819.22;4997814;28;46213;-62
2023/08/31 05:43:19;;;;;;;;;4.25;2.75;;;;;24.95;39.36;100821.50;4998752;28;45875;-61
2023/08/31 05:45:46;;;;;;;;;3.75;3.75;;;;;25.00;39.29;100820.00;4999035;28;45883;-61
2023/08/31 05:48:11;;;;;;;;;5.00;2.75;;;;;25.06;39.03;100827.59;4998784;28;45539;-62
2023/08/31 05:50:37;;;;;;;;;5.00;2.75;;;;;25.03;38.92;100808.69;4998740;28;46111;-62
2023/08/31 05:53:02;;;;;;;;;4.00;2.00;;;;;25.07;39.09;100823.81;4998749;28;45211;-63
2023/08/31 05:55:27;;;;;;;;;2.50;2.50;;;;;25.00;39.42;100817.25;4999296;28;45219;-62
2023/08/31 05:57:53;;;;;;;;;1.00;1.00;;;;;25.06;39.36;100823.97;4998895;28;45277;-62
2023/08/31 06:00:18;;;;;;;;;4.00;4.00;;;;;25.11;39.05;100830.69;4981080;28;48058;-62
2023/08/31 06:02:46;;;;;;;;;2.75;2.75;;;;;25.10;39.00;100826.22;4998457;28;45278;-62
2023/08/31 06:05:12;;;;;;;;;2.25;2.25;;;;;25.10;38.93;100830.84;4998969;28;45358;-62
2023/08/31 06:07:38;;;;;;;;;2.00;2.00;;;;;25.23;39.01;100821.16;4998576;28;45344;-63
2023/08/31 06:10:04;;;;;;;;;2.50;2.00;;;;;25.23;38.93;100837.63;4998712;28;45352;-63
2023/08/31 06:12:30;;;;;;;;;4.00;2.50;;;;;25.41;39.11;100833.97;4998270;28;45459;-63
2023/08/31 06:14:55;;;;;;;;;2.75;2.75;;;;;25.52;38.65;100836.41;5000675;28;45460;-63
2023/08/31 06:17:20;;;;;;;;;4.25;4.00;;;;;25.49;38.53;100839.50;5001969;28;51752;-63
2023/08/31 06:19:46;;;;;;;;;4.00;2.00;;;;;25.39;38.20;100828.63;5001877;28;45409;-62
2023/08/31 06:22:11;;;;;;;;;3.00;3.00;;;;;25.24;38.89;100825.63;5001974;28;45441;-63
2023/08/31 06:24:36;;;;;;;;;2.50;2.50;;;;;25.18;38.62;100829.00;5001921;28;52377;-62
2023/08/31 06:27:02;;;;;;;;;5.00;4.00;;;;;25.23;38.70;100834.88;5002049;28;45231;-62
2023/08/31 06:29:27;;;;;;;;;4.00;4.00;;;;;25.08;39.22;100833.78;5001092;28;45263;-62
2023/08/31 06:31:53;;;;;;;;;4.25;3.50;;;;;25.06;39.08;100813.88;5001807;28;45405;-63
2023/08/31 06:34:19;;;;;;;;;2.25;2.25;;;;;25.39;38.94;100834.13;5001774;28;45541;-62
2023/08/31 06:36:44;;;;;;;;;3.75;3.25;;;;;25.35;38.81;100832.72;5001405;28;58525;-62
2023/08/31 06:39:10;;;;;;;;;5.50;2.00;;;;;25.36;38.69;100841.81;5001584;28;45209;-62
2023/08/31 06:41:35;;;;;;;;;3.00;3.00;;;;;25.35;38.88;100832.72;5001804;28;45399;-63
2023/08/31 06:44:02;;;;;;;;;3.00;3.00;;;;;25.50;39.05;100853.06;5001282;28;45714;-62
2023/08/31 06:46:28;;;;;;;;;5.00;3.75;;;;;25.31;39.13;100849.69;5000443;28;45257;-62
2023/08/31 06:48:53;;;;;;;;;4.00;4.00;;;;;25.47;39.56;100844.28;5000635;28;45392;-61
2023/08/31 06:51:19;;;;;;;;;3.50;2.75;;;;;25.48;38.46;100846.84;5001513;28;45417;-63
2023/08/31 06:53:44;;;;;;;;;3.00;3.00;;;;;25.66;38.59;100852.28;5001982;28;45270;-62
2023/08/31 06:56:09;;;;;;;;;4.50;4.00;;;;;25.56;38.52;100855.13;5001658;28;45314;-63
2023/08/31 06:58:35;;;;;;;;;3.75;2.50;;;;;25.59;38.63;100852.09;5001012;28;60297;-63
2023/08/31 07:01:01;;;;;;;;;5.00;3.75;;;;;25.50;39.28;100852.19;5001622;28;45417;-62
2023/08/31 07:03:26;;;;;;;;;1.75;1.75;;;;;25.44;38.72;100856.44;5000979;28;45227;-63
2023/08/31 07:05:52;;;;;;;;;3.50;3.50;;;;;25.43;38.91;100849.25;5001147;28;45526;-63
2023/08/31 07:08:17;;;;;;;;;1.75;1.75;;;;;25.51;39.08;100857.53;5001467;28;45343;-62
2023/08/31 07:10:43;;;;;;;;;4.00;4.00;;;;;25.36;38.92;100856.38;4996631;28;45325;-61
2023/08/31 07:13:08;;;;;;;;;5.25;3.75;;;;;25.42;38.91;100852.16;4999837;28;48847;-62
2023/08/31 07:15:33;;;;;;;;;2.50;2.25;;;;;25.48;38.49;100860.59;5000482;28;56986;-62
2023/08/31 07:17:58;;;;;;;;;2.00;2.00;;;;;25.36;38.81;100855.53;5000604;28;46960;-62
2023/08/31 07:20:24;;;;;;;;;5.25;3.50;;;;;25.45;38.79;100868.28;5000728;28;45187;-65
2023/08/31 07:22:49;;;;;;;;;3.00;1.00;;;;;25.40;38.91;100870.66;5000354;28;45346;-62
2023/08/31 07:25:14;;;;;;;;;4.00;4.00;;;;;25.26;38.86;100863.91;4999810;28;59910;-62
2023/08/31 07:27:40;;;;;;;;;4.00;4.00;;;;;25.44;38.21;100878.38;5000214;28;45389;-63
2023/08/31 07:30:06;;;;;;;;;2.50;2.50;;;;;25.52;38.10;100867.44;5000699;28;45280;-62
2023/08/31 07:32:32;;;;;;;;;2.00;2.00;;;;;25.50;38.24;100880.50;4999738;28;45462;-62
2023/08/31 07:34:57;;;;;;;;;3.25;2.25;;;;;25.32;38.36;100868.72;5000867;28;45338;-62
2023/08/31 07:37:22;;;;;;;;;4.00;2.00;;;;;25.45;38.29;100880.13;5000702;28;46128;-62
2023/08/31 07:39:48;;;;;;;;;4.00;2.50;;;;;25.54;38.47;100895.63;5000963;28;45313;-62
2023/08/31 07:42:13;;;;;;;;;5.25;2.50;;;;;25.49;38.48;100884.28;5000680;28;45394;-63
2023/08/31 07:44:38;;;;;;;;;4.00;3.00;;;;;25.51;38.45;100895.09;5000605;28;45514;-62
2023/08/31 07:47:05;;;;;;;;;6.00;3.50;;;;;25.49;38.94;100892.50;5000441;28;51853;-65
2023/08/31 07:49:30;;;;;;;;;4.75;3.25;;;;;25.63;38.60;100880.94;4999588;28;45254;-63
2023/08/31 07:51:56;;;;;;;;;3.00;3.00;;;;;25.82;38.47;100896.31;5000236;28;45326;-64
2023/08/31 07:54:21;;;;;;;;;3.00;3.00;;;;;25.87;37.51;100898.53;5000037;28;54818;-64
2023/08/31 07:56:47;;;;;;;;;4.00;4.00;;;;;25.67;38.16;100889.72;5015473;28;45967;-64
2023/08/31 07:59:12;;;;;;;;;2.00;2.00;;;;;25.87;38.39;100893.91;4999939;28;45546;-64
2023/08/31 08:01:38;;;;;;;;;4.50;4.00;;;;;25.97;38.38;100899.28;5000508;28;45163;-63
2023/08/31 08:04:03;;;;;;;;;4.00;2.50;;;;;25.85;38.35;100890.50;5000263;28;45531;-64
2023/08/31 08:06:29;;;;;;;;;7.50;3.25;;;;;25.99;37.50;100900.84;4999159;28;45932;-65
2023/08/31 08:08:54;;;;;;;;;4.75;4.75;;;;;26.20;37.91;100894.03;5000163;28;49909;-64
2023/08/31 08:11:19;;;;;;;;;4.00;4.00;;;;;26.40;37.81;100887.22;4998931;28;51360;-64
2023/08/31 08:13:45;;;;;;;;;3.00;3.00;;;;;26.58;36.82;100901.69;5000073;28;45277;-64
2023/08/31 08:16:10;;;;;;;;;3.50;2.50;;;;;26.54;36.57;100886.56;5000101;28;45255;-63
2023/08/31 08:18:35;;;;;;;;;2.25;2.25;;;;;26.68;36.63;100894.16;5000044;28;45408;-65
2023/08/31 08:21:01;;;;;;;;;3.00;1.75;;;;;26.76;36.41;100896.03;4999954;28;45483;-64
2023/08/31 08:23:26;;;;;;;;;2.25;2.25;;;;;26.84;35.60;100896.03;4999768;28;45574;-64
2023/08/31 08:25:51;;;;;;;;;3.00;2.75;;;;;26.27;36.11;100898.72;4999218;28;57750;-63
2023/08/31 08:28:16;;;;;;;;;3.00;1.75;;;;;26.61;36.01;100887.63;4999356;28;57890;-63
2023/08/31 08:30:42;;;;;;;;;3.00;3.00;;;;;26.62;36.02;100894.84;4999034;28;52732;-64
2023/08/31 08:33:08;;;;;;;;;5.75;1.75;;;;;26.69;36.01;100890.38;4981587;28;53709;-64
2023/08/31 08:35:33;;;;;;;;;2.25;2.25;;;;;26.80;36.36;100896.53;4999618;28;45302;-64
2023/08/31 08:37:59;;;;;;;;;2.75;2.75;;;;;26.85;35.92;100885.91;4998697;28;45278;-64
2023/08/31 08:40:25;;;;;;;;;5.50;3.50;;;;;26.58;36.05;100881.59;4999713;28;45471;-64
2023/08/31 08:42:53;;;;;;;;;4.00;2.00;;;;;26.77;36.06;100891.41;4999717;28;45425;-64
2023/08/31 08:45:24;;;;;;;;;3.50;2.00;;;;;26.72;35.88;100887.25;4999194;28;45230;-64
2023/08/31 08:47:51;;;;;;;;;2.00;2.00;;;;;26.69;35.62;100897.75;4999114;28;45388;-65
2023/08/31 08:50:17;;;;;;;;;2.25;1.25;;;;;26.59;35.41;100900.66;4999324;28;45343;-66
2023/08/31 08:52:43;;;;;;;;;4.00;4.00;;;;;26.75;35.77;100902.56;4999457;28;45502;-67
2023/08/31 08:55:09;;;;;;;;;6.25;2.25;;;;;26.70;35.78;100899.50;4999631;28;45354;-65
2023/08/31 08:57:35;;;;;;;;;4.00;3.00;;;;;26.77;35.48;100902.41;4999174;28;45687;-66
2023/08/31 09:00:01;;;;;;;;;6.25;4.00;;;;;26.84;35.44;100901.53;4999772;28;45209;-66
2023/08/31 09:02:26;;;;;;;;;2.75;2.75;;;;;26.86;35.61;100905.00;4998642;28;45729;-66
2023/08/31 09:04:54;;;;;;;;;5.50;3.00;;;;;26.86;35.75;100906.88;4996314;28;45344;-66
2023/08/31 09:07:21;;;;;;;;;3.25;3.25;;;;;26.92;36.18;100903.47;4999340;28;45292;-66
2023/08/31 09:09:52;;;;;;;;;5.00;3.00;;;;;26.91;36.44;100910.84;4999438;28;45305;-65
2023/08/31 09:12:18;;;;;;;;;4.00;2.00;;;;;26.81;36.45;100901.00;4999160;28;45502;-68
2023/08/31 09:14:43;;;;;;;;;3.00;3.00;;;;;26.88;36.17;100896.56;4999278;28;46228;-67
2023/08/31 09:17:08;;;;;;;;;5.00;4.00;;;;;26.96;35.87;100902.97;4999183;28;45308;-67
2023/08/31 09:19:34;;;;;;;;;4.50;3.00;;;;;26.98;35.76;100908.28;4999162;28;45276;-67
2023/08/31 09:22:00;;;;;;;;;3.25;3.25;;;;;27.02;36.19;100904.16;4999185;28;45408;-68
2023/08/31 09:24:25;;;;;;;;;4.00;2.25;;;;;27.00;36.02;100889.72;4998896;28;46042;-68
2023/08/31 09:26:56;;;;;;;;;4.00;4.00;;;;;27.09;36.51;100903.28;4999183;28;45297;-68
2023/08/31 09:29:21;;;;;;;;;3.00;3.00;;;;;27.13;36.29;100906.56;4992089;28;45514;-68
2023/08/31 09:31:47;;;;;;;;;2.50;2.50;;;;;27.10;35.90;100899.50;4993162;28;45425;-67
2023/08/31 09:34:16;;;;;;;;;5.75;4.25;;;;;27.25;35.90;100905.16;4997692;28;45571;-67
2023/08/31 09:36:42;;;;;;;;;5.50;2.75;;;;;27.06;35.64;100894.50;4999038;28;45280;-68
2023/08/31 09:39:09;;;;;;;;;4.00;2.50;;;;;26.99;36.47;100890.72;4999152;28;45159;-67
2023/08/31 09:41:34;;;;;;;;;1.50;0.00;;;;;26.84;36.84;100881.44;4998256;28;45246;-68
2023/08/31 09:44:17;;;;;;;;;4.50;3.50;;;;;27.06;36.98;100883.50;4987890;28;47033;-69
2023/08/31 09:46:43;;;;;;;;;3.00;3.00;;;;;26.96;37.40;100893.84;4995249;28;45277;-67
2023/08/31 09:49:12;;;;;;;;;4.00;4.00;;;;;27.09;37.00;100884.03;4999713;28;45309;-67
2023/08/31 09:51:41;;;;;;;;;2.50;2.50;;;;;27.14;37.61;100886.25;5001918;28;45365;-67
2023/08/31 09:54:09;;;;;;;;;3.00;2.50;;;;;27.13;37.18;100884.56;5002297;28;45390;-68
2023/08/31 09:56:36;;;;;;;;;2.50;1.50;;;;;27.18;37.65;100893.13;5002266;28;45194;-67
2023/08/31 09:59:03;;;;;;;;;4.00;2.50;;;;;27.30;36.81;100893.63;5002391;28;45345;-68
2023/08/31 10:01:28;;;;;;;;;3.75;3.75;;;;;27.29;37.05;100889.16;5001957;28;45293;-68
2023/08/31 10:03:54;;;;;;;;;5.50;3.75;;;;;27.19;36.70;100886.59;5001926;28;45334;-67
2023/08/31 10:06:21;;;;;;;;;4.00;2.75;;;;;27.16;37.47;100884.19;5001960;28;45395;-67
2023/08/31 10:08:47;;;;;;;;;4.50;3.50;;;;;27.29;37.01;100892.78;5002445;28;45246;-69
2023/08/31 10:11:14;;;;;;;;;2.50;2.50;;;;;27.28;37.40;100881.94;5001968;28;45249;-68
2023/08/31 10:13:41;;;;;;;;;9.75;3.75;;;;;27.20;37.55;100887.47;5001980;28;47174;-71
2023/08/31 10:16:07;;;;;;;;;4.50;4.50;;;;;27.12;38.14;100871.81;5001537;28;45634;-67
2023/08/31 10:18:34;;;;;;;;;7.00;5.75;;;;;27.20;38.28;100862.69;5001343;28;45345;-69
2023/08/31 10:21:02;;;;;;;;;3.75;3.50;;;;;27.20;38.47;100879.19;5001475;28;45522;-69
2023/08/31 10:23:28;;;;;;;;;5.25;3.50;;;;;27.27;37.88;100874.72;5001495;28;46995;-67
2023/08/31 10:25:53;;;;;;;;;3.00;3.00;;;;;27.18;38.57;100873.88;5001579;28;45325;-69
2023/08/31 10:28:24;;;;;;;;;5.50;4.00;;;;;27.11;38.51;100870.97;5001179;28;45361;-68
2023/08/31 10:31:06;;;;;;;;;5.00;3.75;;;;;26.96;38.65;100866.34;5000900;28;45335;-68
2023/08/31 10:33:39;;;;;;;;;3.75;3.25;;;;;27.00;38.96;100851.19;5000947;28;46115;-69
2023/08/31 10:36:09;;;;;;;;;4.00;3.00;;;;;27.03;38.10;100864.59;5001819;28;45420;-71
2023/08/31 10:38:35;;;;;;;;;3.75;3.75;;;;;26.96;37.45;100850.69;5001747;28;45368;-70
2023/08/31 10:41:07;;;;;;;;;6.25;3.25;;;;;27.21;37.60;100868.03;5001721;28;45251;-70
2023/08/31 10:43:59;;;;;;;;;1.75;1.75;;;;;27.00;38.04;100881.44;5001265;28;46202;-71
2023/08/31 10:46:27;;;;;;;;;4.75;4.75;;;;;27.22;37.94;100871.63;5001249;28;45238;-70
2023/08/31 10:48:53;;;;;;;;;4.00;4.00;;;;;27.04;37.02;100872.69;5001619;28;45326;-70
2023/08/31 10:51:21;;;;;;;;;3.00;3.00;;;;;27.10;37.60;100868.38;5000515;28;45373;-70
2023/08/31 10:53:46;;;;;;;;;4.00;2.50;;;;;27.07;37.62;100861.31;5001629;28;45417;-70
2023/08/31 10:56:12;;;;;;;;;7.00;5.00;;;;;27.30;37.75;100863.34;5001404;28;45245;-70
2023/08/31 10:58:38;;;;;;;;;5.00;4.00;;;;;27.35;37.15;100856.28;5001172;28;45239;-69
2023/08/31 11:01:03;;;;;;;;;5.25;4.00;;;;;27.35;37.02;100852.66;4999845;28;54262;-71
2023/08/31 11:03:30;;;;;;;;;5.00;5.00;;;;;27.40;36.72;100851.09;5000110;28;46577;-70
